Time;durP1;ratioP1;P1;durP2;ratioP2;P2;SDS_P1;SDS_P2;PMS_P1;PMS_P2;Temp;Humidity;BMP_temperature;BMP_pressure;BME280_temperature;BME280_humidity;BME280_pressure;Samples;Min_cycle;Max_cycle;Signal;HPM_P1;HPM_P2
2021/12/21 00:00:22;;;;;;;18.90;8.75;;;5.00;77.10;;;;;;5038737;28;20032;-83
2021/12/21 00:02:50;;;;;;;31.33;14.30;;;5.00;77.10;;;;;;5055684;28;20031;-83
2021/12/21 00:05:20;;;;;;;17.25;8.68;;;5.00;77.40;;;;;;5073081;28;20478;-83
2021/12/21 00:07:48;;;;;;;21.83;10.77;;;4.90;77.10;;;;;;5077719;28;20020;-84
2021/12/21 00:10:15;;;;;;;16.55;9.52;;;4.80;77.40;;;;;;5074912;28;20077;-84
2021/12/21 00:12:51;;;;;;;16.00;8.52;;;4.80;77.60;;;;;;5076812;28;20054;-84
2021/12/21 00:18:14;;;;;;;24.00;11.38;;;4.80;77.30;;;;;;5061357;28;20503;-84
2021/12/21 00:23:36;;;;;;;15.73;8.02;;;4.70;77.70;;;;;;5077446;28;20025;-83
2021/12/21 00:26:13;;;;;;;17.00;11.77;;;4.80;77.60;;;;;;5074470;28;20016;-83
2021/12/21 00:28:50;;;;;;;24.50;11.52;;;4.70;77.40;;;;;;5076521;28;20028;-84
2021/12/21 00:31:16;;;;;;;20.55;11.02;;;4.70;77.40;;;;;;5049474;28;20021;-84
2021/12/21 00:33:45;;;;;;;12.70;8.70;;;4.70;77.20;;;;;;5064220;28;20025;-83
2021/12/21 00:36:12;;;;;;;17.80;10.50;;;4.70;77.10;;;;;;5058999;28;20049;-84
2021/12/21 00:38:38;;;;;;;18.27;9.60;;;4.90;77.20;;;;;;5074813;28;20048;-84
2021/12/21 00:41:04;;;;;;;16.92;10.00;;;4.80;76.90;;;;;;5077200;28;20610;-84
2021/12/21 00:43:30;;;;;;;14.50;7.97;;;4.80;76.90;;;;;;5074690;28;20032;-84
2021/12/21 00:45:56;;;;;;;11.50;7.57;;;4.90;76.90;;;;;;5062827;28;20029;-84
2021/12/21 00:48:28;;;;;;;21.25;10.30;;;4.80;77.10;;;;;;5055241;28;20147;-83
2021/12/21 00:50:54;;;;;;;17.20;9.50;;;4.80;77.10;;;;;;5053946;28;20018;-84
2021/12/21 00:53:20;;;;;;;17.35;10.05;;;5.00;77.00;;;;;;5056959;28;20072;-84
2021/12/21 00:55:46;;;;;;;20.25;10.70;;;4.80;76.70;;;;;;5054121;28;20029;-84
2021/12/21 00:58:12;;;;;;;16.70;8.88;;;4.80;76.60;;;;;;5057629;28;20021;-84
2021/12/21 01:00:38;;;;;;;13.02;7.25;;;4.80;76.60;;;;;;5058356;28;20021;-83
2021/12/21 01:03:11;;;;;;;13.18;7.68;;;4.70;76.70;;;;;;5077162;28;20085;-84
2021/12/21 01:08:43;;;;;;;20.95;10.63;;;4.80;77.00;;;;;;5074706;28;20032;-84
2021/12/21 01:13:42;;;;;;;19.50;9.68;;;4.80;76.60;;;;;;5054264;28;20032;-84
2021/12/21 01:18:56;;;;;;;18.27;10.02;;;4.80;76.60;;;;;;5056943;28;20028;-84
2021/12/21 01:21:27;;;;;;;16.45;8.52;;;4.70;76.80;;;;;;5080647;28;20027;-84
2021/12/21 01:24:09;;;;;;;16.85;10.18;;;4.70;77.00;;;;;;5078298;28;20032;-84
2021/12/21 01:29:15;;;;;;;17.92;8.77;;;4.70;77.00;;;;;;5077996;28;20074;-85
2021/12/21 01:41:41;;;;;;;24.38;10.30;;;4.70;77.30;;;;;;5057978;28;20037;-83
2021/12/21 01:49:45;;;;;;;20.27;10.07;;;4.60;77.40;;;;;;5060880;28;20525;-84
2021/12/21 01:52:14;;;;;;;27.95;11.57;;;4.60;77.30;;;;;;5057689;28;20391;-84
2021/12/21 01:54:39;;;;;;;19.95;9.93;;;4.70;77.10;;;;;;5060533;28;20025;-84
2021/12/21 01:57:06;;;;;;;24.08;12.32;;;4.70;76.90;;;;;;5057384;28;20140;-84
2021/12/21 01:59:52;;;;;;;21.73;9.13;;;4.60;77.00;;;;;;5058031;28;20467;-84
2021/12/21 02:02:20;;;;;;;18.83;10.13;;;4.60;77.10;;;;;;5033109;28;20040;-83
2021/12/21 02:04:45;;;;;;;20.42;10.40;;;4.60;77.10;;;;;;5057048;28;20415;-84
2021/12/21 02:07:12;;;;;;;22.55;10.32;;;4.60;77.00;;;;;;5058871;28;20029;-84
2021/12/21 02:09:39;;;;;;;17.13;9.70;;;4.50;77.00;;;;;;5039246;28;20036;-84
2021/12/21 02:12:14;;;;;;;21.88;9.98;;;4.50;77.20;;;;;;5059938;28;20056;-84
2021/12/21 02:14:41;;;;;;;23.60;9.68;;;4.50;77.10;;;;;;5057332;28;20078;-84
2021/12/21 02:22:42;;;;;;;18.60;10.75;;;4.40;77.20;;;;;;5070174;28;20036;-84
2021/12/21 02:30:31;;;;;;;21.85;10.10;;;4.20;77.40;;;;;;5021869;28;20601;-84
2021/12/21 02:32:57;;;;;;;19.85;9.88;;;4.20;77.50;;;;;;5057006;28;20051;-84
2021/12/21 02:35:22;;;;;;;20.38;11.05;;;4.10;78.00;;;;;;5059094;28;20053;-84
2021/12/21 02:37:48;;;;;;;28.42;11.65;;;4.10;78.10;;;;;;5056463;28;20103;-83
2021/12/21 02:40:14;;;;;;;20.63;11.60;;;4.10;78.00;;;;;;5059600;28;20037;-83
2021/12/21 02:42:39;;;;;;;27.90;11.23;;;4.10;78.20;;;;;;5056355;28;20744;-84
2021/12/21 02:45:17;;;;;;;23.38;11.10;;;4.00;78.20;;;;;;5069101;28;20037;-84
2021/12/21 02:47:43;;;;;;;17.75;10.45;;;4.00;78.10;;;;;;5060272;28;20025;-84
2021/12/21 02:50:09;;;;;;;22.08;11.27;;;4.00;78.20;;;;;;5076521;28;20069;-84
2021/12/21 02:52:34;;;;;;;21.83;12.00;;;3.90;78.20;;;;;;5067322;28;20021;-84
2021/12/21 02:55:04;;;;;;;24.63;11.48;;;3.90;78.40;;;;;;5056468;28;20017;-84
2021/12/21 02:57:30;;;;;;;25.65;11.23;;;3.90;78.40;;;;;;5059353;28;20025;-84
2021/12/21 02:59:56;;;;;;;23.45;11.40;;;3.90;78.30;;;;;;5056181;28;20029;-84
2021/12/21 03:02:25;;;;;;;26.83;13.18;;;4.00;78.10;;;;;;5057662;28;20047;-84
2021/12/21 03:04:51;;;;;;;25.80;12.25;;;4.00;77.90;;;;;;5057415;28;20021;-84
2021/12/21 03:09:56;;;;;;;20.08;11.77;;;3.90;77.90;;;;;;5058675;28;20427;-84
2021/12/21 03:14:50;;;;;;;27.98;11.48;;;3.70;78.20;;;;;;5078784;28;20020;-84
2021/12/21 03:17:17;;;;;;;23.30;11.27;;;3.60;78.50;;;;;;5070781;28;20060;-84
2021/12/21 03:19:45;;;;;;;20.63;10.65;;;3.40;79.00;;;;;;5056096;28;20019;-83
2021/12/21 03:22:12;;;;;;;21.85;9.77;;;3.40;79.30;;;;;;5096400;28;20535;-84
2021/12/21 03:24:38;;;;;;;21.05;10.80;;;3.20;79.00;;;;;;5077973;28;20032;-83
2021/12/21 03:27:05;;;;;;;27.25;13.00;;;3.30;79.10;;;;;;5081037;28;20056;-83
2021/12/21 03:29:31;;;;;;;22.70;10.93;;;3.20;78.90;;;;;;5055818;28;20399;-84
2021/12/21 03:31:57;;;;;;;21.80;10.50;;;3.20;79.20;;;;;;5058263;28;20040;-84
2021/12/21 03:34:24;;;;;;;18.95;9.85;;;3.30;79.10;;;;;;5055287;28;20028;-84
2021/12/21 03:36:50;;;;;;;24.15;11.02;;;3.20;78.90;;;;;;5058078;28;20036;-82
2021/12/21 03:39:19;;;;;;;24.92;12.45;;;3.20;78.80;;;;;;5052558;28;20110;-84
2021/12/21 03:41:48;;;;;;;21.25;10.43;;;3.20;79.10;;;;;;5074757;28;20082;-84
2021/12/21 03:44:16;;;;;;;18.42;10.48;;;3.00;79.30;;;;;;5059920;28;20498;-83
2021/12/21 03:46:51;;;;;;;23.38;10.63;;;2.90;79.30;;;;;;5056119;28;20040;-83
2021/12/21 03:51:51;;;;;;;20.83;11.35;;;3.00;79.70;;;;;;5055366;28;20025;-83
2021/12/21 03:54:16;;;;;;;25.77;13.18;;;3.00;79.60;;;;;;5057775;28;20032;-84
2021/12/21 03:56:43;;;;;;;19.77;10.05;;;2.90;79.90;;;;;;5055538;28;20064;-84
2021/12/21 03:59:19;;;;;;;19.48;11.48;;;2.90;79.80;;;;;;5055971;28;20036;-83
2021/12/21 04:01:46;;;;;;;27.83;12.43;;;2.90;79.70;;;;;;5038605;28;20033;-83
2021/12/21 04:04:11;;;;;;;30.05;13.63;;;2.90;79.70;;;;;;5037059;28;20036;-84
2021/12/21 04:06:38;;;;;;;27.27;13.40;;;2.90;79.70;;;;;;5057952;28;20100;-83
2021/12/21 04:09:06;;;;;;;30.73;12.93;;;2.80;79.90;;;;;;5055009;28;20028;-84
2021/12/21 04:11:33;;;;;;;31.10;12.25;;;2.80;80.40;;;;;;5057434;28;20094;-84
2021/12/21 04:13:59;;;;;;;28.25;13.40;;;2.80;80.10;;;;;;5054820;28;20021;-84
2021/12/21 04:16:26;;;;;;;26.85;12.00;;;2.90;79.80;;;;;;5055111;28;20132;-83
2021/12/21 04:18:51;;;;;;;32.10;13.65;;;2.80;79.90;;;;;;5057871;28;20036;-83
2021/12/21 04:21:17;;;;;;;28.00;12.57;;;2.80;80.20;;;;;;5063662;28;20479;-83
2021/12/21 04:23:43;;;;;;;29.15;12.25;;;2.80;80.40;;;;;;5058186;28;20513;-83
2021/12/21 04:26:11;;;;;;;26.85;11.68;;;2.90;80.20;;;;;;5054498;28;20025;-83
2021/12/21 04:28:38;;;;;;;31.58;12.80;;;2.80;80.30;;;;;;5057079;28;20024;-84
2021/12/21 04:31:05;;;;;;;19.55;10.63;;;2.90;80.20;;;;;;5054765;28;20079;-84
2021/12/21 04:33:34;;;;;;;22.85;10.20;;;2.80;80.50;;;;;;5056261;28;20021;-83
2021/12/21 04:36:00;;;;;;;21.15;9.55;;;2.90;80.30;;;;;;5055781;28;20089;-84
2021/12/21 04:38:31;;;;;;;18.45;9.88;;;2.80;80.40;;;;;;5036423;28;20033;-84
2021/12/21 04:41:23;;;;;;;25.73;10.77;;;2.90;80.30;;;;;;5057370;28;20036;-84
2021/12/21 04:43:48;;;;;;;24.65;9.45;;;2.90;80.40;;;;;;5054215;28;20025;-83
2021/12/21 04:46:14;;;;;;;19.38;9.65;;;2.80;80.60;;;;;;5055819;28;20033;-84
2021/12/21 04:48:40;;;;;;;23.55;10.40;;;2.90;80.60;;;;;;5055387;28;20027;-84
2021/12/21 04:51:06;;;;;;;25.95;9.98;;;2.90;81.20;;;;;;5077416;28;20039;-83
2021/12/21 04:53:33;;;;;;;23.50;10.65;;;2.90;81.00;;;;;;5078754;28;20069;-84
2021/12/21 04:56:19;;;;;;;22.17;10.70;;;2.80;81.00;;;;;;5040715;28;20040;-84
2021/12/21 04:58:44;;;;;;;20.88;10.50;;;2.90;81.00;;;;;;5059203;28;20044;-84
2021/12/21 05:01:10;;;;;;;22.83;9.93;;;3.00;80.80;;;;;;5070800;28;20040;-84
2021/12/21 05:03:36;;;;;;;23.38;11.07;;;3.00;80.80;;;;;;5081178;28;20030;-83
2021/12/21 05:06:02;;;;;;;19.63;10.02;;;3.00;80.60;;;;;;5060753;28;20119;-84
2021/12/21 05:08:33;;;;;;;22.60;10.02;;;3.10;80.50;;;;;;5063467;28;20020;-84
2021/12/21 05:11:01;;;;;;;25.65;10.70;;;3.00;80.50;;;;;;5064698;28;20037;-84
2021/12/21 05:13:31;;;;;;;25.83;9.27;;;3.00;80.70;;;;;;5042262;28;20097;-84
2021/12/21 05:15:57;;;;;;;;;;;3.00;80.60;;;;;;5059429;28;20503;-84
2021/12/21 05:18:23;;;;;;;20.88;10.77;;;3.00;80.90;;;;;;5058139;28;19920;-83
2021/12/21 05:20:50;;;;;;;22.23;9.82;;;2.90;80.60;;;;;;5095025;28;20116;-83
2021/12/21 05:23:16;;;;;;;20.02;9.50;;;2.90;80.90;;;;;;5097953;28;20094;-84
2021/12/21 05:25:42;;;;;;;23.63;9.57;;;2.80;81.20;;;;;;5075168;28;20029;-84
2021/12/21 05:28:10;;;;;;;20.25;9.25;;;2.80;81.00;;;;;;5057564;28;20104;-84
2021/12/21 05:30:42;;;;;;;22.35;9.43;;;2.80;80.90;;;;;;5043251;28;20078;-83
2021/12/21 05:33:08;;;;;;;18.30;9.57;;;2.80;80.70;;;;;;5059906;28;20492;-84
2021/12/21 05:35:35;;;;;;;23.50;10.90;;;2.70;81.00;;;;;;5073626;28;20059;-84
2021/12/21 05:38:04;;;;;;;17.95;9.27;;;2.80;81.40;;;;;;5059857;28;20025;-84
2021/12/21 05:40:35;;;;;;;19.83;8.93;;;2.90;81.10;;;;;;5075646;28;20478;-83
2021/12/21 05:43:04;;;;;;;24.88;12.32;;;2.80;81.00;;;;;;5076842;28;20572;-90
2021/12/21 05:45:30;;;;;;;16.27;9.77;;;2.90;80.80;;;;;;5076618;28;20107;-84
2021/12/21 05:47:56;;;;;;;22.80;10.98;;;2.90;80.40;;;;;;5059287;28;20027;-81
2021/12/21 05:50:22;;;;;;;23.40;11.20;;;3.00;80.30;;;;;;5056982;28;20712;-81
2021/12/21 05:52:48;;;;;;;23.77;9.82;;;2.90;80.00;;;;;;5057576;28;20020;-88
2021/12/21 05:55:16;;;;;;;20.05;10.35;;;2.90;80.10;;;;;;5078077;28;20552;-89
2021/12/21 05:57:42;;;;;;;20.77;9.32;;;3.00;79.90;;;;;;5077413;28;20046;-87
2021/12/21 06:00:12;;;;;;;23.13;10.65;;;2.90;80.10;;;;;;5062596;28;20033;-90
2021/12/21 06:02:37;;;;;;;20.85;8.93;;;2.80;80.30;;;;;;5043559;28;20025;-83
2021/12/21 06:05:04;;;;;;;28.45;11.45;;;2.90;80.00;;;;;;5059466;28;20152;-92
2021/12/21 06:07:31;;;;;;;22.85;9.77;;;2.80;80.40;;;;;;5039613;28;20021;-88
2021/12/21 06:10:18;;;;;;;19.42;9.63;;;2.80;79.90;;;;;;5063408;28;20028;-86
2021/12/21 06:25:55;;;;;;;30.42;17.60;;;2.70;80.40;;;;;;5084032;28;20510;-85
2021/12/21 06:28:21;;;;;;;73.28;41.78;;;2.70;80.40;;;;;;5057476;28;20387;-84
2021/12/21 06:30:47;;;;;;;29.05;18.23;;;2.70;80.40;;;;;;5056320;28;20032;-85
2021/12/21 06:33:16;;;;;;;18.90;10.38;;;2.80;80.10;;;;;;5054498;28;20017;-84
2021/12/21 06:35:43;;;;;;;18.15;8.38;;;2.80;79.60;;;;;;5045408;28;20053;-87
2021/12/21 06:38:10;;;;;;;26.08;11.68;;;2.70;79.80;;;;;;5056635;28;20491;-85
2021/12/21 06:40:36;;;;;;;34.30;12.25;;;2.70;80.30;;;;;;5043396;28;20025;-85
2021/12/21 06:43:03;;;;;;;22.90;10.88;;;2.60;80.30;;;;;;5055498;28;20025;-84
2021/12/21 06:53:27;;;;;;;24.55;10.20;;;2.60;80.30;;;;;;5056670;28;20079;-80
2021/12/21 06:55:52;;;;;;;22.48;10.30;;;2.50;80.10;;;;;;5054753;28;20143;-81
2021/12/21 06:58:18;;;;;;;23.10;11.55;;;2.60;80.30;;;;;;5056798;28;20020;-85
2021/12/21 07:00:46;;;;;;;22.25;10.02;;;2.60;80.40;;;;;;5045943;28;20043;-85
2021/12/21 07:03:13;;;;;;;27.75;9.80;;;2.50;80.10;;;;;;5058238;28;20029;-85
2021/12/21 07:05:40;;;;;;;25.48;11.90;;;2.60;80.30;;;;;;5064510;28;20028;-85
2021/12/21 07:08:11;;;;;;;23.63;9.95;;;2.70;79.80;;;;;;5050775;28;20112;-85
2021/12/21 07:10:38;;;;;;;22.05;9.68;;;2.60;79.90;;;;;;5063515;28;20025;-85
2021/12/21 07:18:41;;;;;;;19.13;9.38;;;2.70;79.60;;;;;;5066497;28;19985;-84
2021/12/21 07:21:07;;;;;;;21.52;9.65;;;2.70;79.50;;;;;;5052959;28;20028;-84
2021/12/21 07:23:33;;;;;;;19.52;10.77;;;2.60;79.50;;;;;;5064610;28;20173;-85
2021/12/21 07:25:59;;;;;;;18.40;10.57;;;2.60;79.90;;;;;;5074808;28;20032;-85
2021/12/21 07:28:24;;;;;;;21.83;9.80;;;2.60;79.70;;;;;;5056875;28;20035;-86
2021/12/21 07:30:50;;;;;;;20.65;8.93;;;2.50;79.90;;;;;;5076937;28;20345;-85
2021/12/21 07:33:17;;;;;;;29.55;12.55;;;2.50;80.00;;;;;;5075494;28;20025;-86
2021/12/21 07:35:43;;;;;;;25.85;11.88;;;2.60;79.60;;;;;;5064235;28;20120;-85
2021/12/21 07:38:10;;;;;;;23.45;11.18;;;2.60;79.60;;;;;;5049185;28;20028;-85
2021/12/21 07:40:38;;;;;;;21.30;9.75;;;2.60;79.50;;;;;;5064405;28;20082;-86
2021/12/21 07:43:03;;;;;;;26.08;11.55;;;2.60;79.20;;;;;;5069509;28;20024;-85
2021/12/21 07:45:29;;;;;;;26.20;11.02;;;2.50;79.40;;;;;;5043600;28;20035;-85
2021/12/21 07:47:56;;;;;;;22.17;10.38;;;2.50;79.30;;;;;;5069008;28;20394;-85
2021/12/21 07:50:22;;;;;;;23.73;11.32;;;2.60;79.20;;;;;;5066222;28;20501;-85
2021/12/21 07:52:48;;;;;;;29.05;15.80;;;2.60;79.30;;;;;;5066341;28;20152;-85
2021/12/21 07:55:14;;;;;;;23.10;13.55;;;2.50;79.30;;;;;;5064653;28;20009;-86
2021/12/21 07:57:39;;;;;;;22.73;11.55;;;2.50;79.20;;;;;;5065568;28;20047;-85
2021/12/21 08:00:07;;;;;;;23.65;12.00;;;2.50;79.20;;;;;;5049664;28;20029;-85
2021/12/21 08:02:33;;;;;;;17.83;9.85;;;2.50;79.20;;;;;;5048767;28;20068;-85
2021/12/21 08:05:04;;;;;;;25.83;13.23;;;2.40;79.70;;;;;;5066449;28;20017;-85
2021/12/21 08:07:34;;;;;;;35.70;17.95;;;2.40;79.80;;;;;;5064292;28;20033;-85
2021/12/21 08:10:07;;;;;;;20.27;12.00;;;2.50;79.50;;;;;;5063145;28;20029;-85
2021/12/21 08:12:33;;;;;;;25.17;12.27;;;2.50;79.10;;;;;;5063186;28;20035;-84
2021/12/21 08:14:59;;;;;;;26.67;14.13;;;2.60;79.30;;;;;;5062888;28;20059;-85
2021/12/21 08:17:25;;;;;;;26.13;13.73;;;2.60;79.00;;;;;;5053715;28;20025;-84
2021/12/21 08:19:50;;;;;;;24.42;12.88;;;2.60;79.20;;;;;;5042999;28;20505;-85
2021/12/21 08:22:16;;;;;;;24.02;13.63;;;2.60;79.20;;;;;;5045421;28;20505;-85
2021/12/21 08:24:43;;;;;;;21.15;11.40;;;2.70;79.10;;;;;;5047610;28;20020;-84
2021/12/21 08:27:09;;;;;;;24.30;11.48;;;2.60;79.20;;;;;;5044514;28;20025;-84
2021/12/21 08:29:35;;;;;;;26.75;14.98;;;2.60;79.10;;;;;;5063676;28;20055;-85
2021/12/21 08:32:01;;;;;;;20.35;11.30;;;2.60;79.30;;;;;;5063306;28;20433;-82
2021/12/21 08:34:26;;;;;;;36.70;16.67;;;2.50;79.20;;;;;;5062712;28;20032;-82
2021/12/21 08:42:55;;;;;;;28.92;13.70;;;2.20;80.00;;;;;;5071977;28;20379;-85
2021/12/21 08:45:22;;;;;;;30.75;13.18;;;2.00;81.20;;;;;;5056506;28;20152;-86
2021/12/21 08:47:48;;;;;;;24.55;11.45;;;2.10;81.60;;;;;;5032340;28;20072;-85
2021/12/21 08:50:14;;;;;;;18.95;12.05;;;2.20;81.10;;;;;;5032073;28;20037;-83
2021/12/21 08:52:40;;;;;;;19.23;9.20;;;2.30;81.20;;;;;;5032159;28;20018;-82
2021/12/21 08:55:08;;;;;;;26.67;10.60;;;2.30;80.70;;;;;;5037614;28;20021;-81
2021/12/21 08:57:36;;;;;;;28.92;12.43;;;2.50;80.60;;;;;;5043880;28;20524;-80
2021/12/21 09:00:04;;;;;;;19.13;10.30;;;2.70;80.20;;;;;;5049068;28;20782;-81
2021/12/21 09:02:33;;;;;;;14.85;7.80;;;2.70;79.90;;;;;;5041970;28;20083;-83
2021/12/21 09:04:59;;;;;;;19.10;9.75;;;2.80;78.60;;;;;;5031648;28;20048;-83
2021/12/21 09:07:25;;;;;;;25.88;12.60;;;3.00;78.80;;;;;;5031846;28;20030;-82
2021/12/21 09:09:50;;;;;;;21.27;10.30;;;3.10;78.60;;;;;;5041294;28;20033;-80
2021/12/21 09:12:16;;;;;;;24.65;10.05;;;3.10;78.40;;;;;;5049528;28;20037;-83
2021/12/21 09:14:41;;;;;;;17.05;9.18;;;3.20;78.30;;;;;;5044751;28;20100;-81
2021/12/21 09:17:07;;;;;;;18.23;8.45;;;3.20;78.00;;;;;;5046979;28;20052;-80
2021/12/21 09:19:33;;;;;;;24.02;11.93;;;3.30;78.00;;;;;;5038179;28;20533;-80
2021/12/21 09:21:59;;;;;;;18.30;10.52;;;3.30;77.50;;;;;;5035340;28;20068;-82
2021/12/21 09:24:24;;;;;;;27.13;11.90;;;3.40;77.60;;;;;;5036322;28;20029;-80
2021/12/21 09:26:50;;;;;;;20.95;10.70;;;3.50;77.60;;;;;;5039245;28;20032;-81
2021/12/21 09:29:16;;;;;;;15.80;8.43;;;3.60;77.10;;;;;;5038184;28;20515;-81
2021/12/21 09:31:41;;;;;;;28.40;12.07;;;3.50;77.10;;;;;;5047075;28;20046;-80
2021/12/21 09:34:08;;;;;;;21.20;10.18;;;3.70;77.10;;;;;;5050233;28;20048;-83
2021/12/21 09:36:34;;;;;;;25.63;11.80;;;3.70;76.70;;;;;;5041853;28;20403;-82
2021/12/21 09:39:00;;;;;;;18.08;8.75;;;3.80;76.70;;;;;;5030066;28;20044;-85
2021/12/21 09:41:26;;;;;;;18.70;9.65;;;3.80;76.30;;;;;;5029883;28;20498;-78
2021/12/21 09:43:51;;;;;;;19.88;8.88;;;3.80;76.50;;;;;;5041535;28;20039;-85
2021/12/21 09:46:17;;;;;;;27.15;11.82;;;3.90;76.20;;;;;;5050539;28;20021;-82
2021/12/21 09:48:44;;;;;;;28.50;13.48;;;3.90;76.00;;;;;;5049753;28;20025;-81
2021/12/21 09:51:10;;;;;;;18.70;9.98;;;4.00;76.40;;;;;;5051268;28;20026;-81
2021/12/21 09:53:36;;;;;;;21.83;10.30;;;4.00;75.70;;;;;;5030155;28;20112;-82
2021/12/21 09:56:04;;;;;;;18.17;9.93;;;4.10;75.90;;;;;;5037170;28;20061;-80
2021/12/21 09:58:30;;;;;;;22.42;10.82;;;4.20;75.70;;;;;;5029378;28;20029;-79
2021/12/21 10:00:56;;;;;;;15.77;9.07;;;4.20;75.40;;;;;;5017809;28;20026;-79
2021/12/21 10:03:22;;;;;;;20.08;8.90;;;4.20;74.70;;;;;;5018049;28;20081;-79
2021/12/21 10:05:47;;;;;;;16.33;8.77;;;4.30;74.80;;;;;;5026942;28;20115;-77
2021/12/21 10:08:17;;;;;;;17.00;8.55;;;4.30;74.70;;;;;;5032297;28;20792;-77
2021/12/21 10:10:47;;;;;;;15.30;8.20;;;4.40;74.60;;;;;;5032643;28;20080;-77
2021/12/21 10:13:24;;;;;;;18.60;9.90;;;4.50;74.70;;;;;;5034882;28;20037;-77
2021/12/21 10:15:56;;;;;;;20.40;9.52;;;4.50;74.60;;;;;;5033070;28;20075;-77
2021/12/21 10:18:27;;;;;;;23.05;9.52;;;4.60;74.10;;;;;;5033081;28;20392;-77
2021/12/21 10:20:56;;;;;;;13.80;8.57;;;4.60;73.30;;;;;;5034755;28;20079;-78
2021/12/21 10:23:31;;;;;;;16.98;8.40;;;4.70;73.70;;;;;;5033698;28;20446;-77
2021/12/21 10:26:02;;;;;;;16.13;8.50;;;4.70;73.50;;;;;;5037198;28;20024;-78
2021/12/21 10:28:33;;;;;;;21.85;9.18;;;4.80;73.40;;;;;;5035134;28;20072;-78
2021/12/21 10:31:08;;;;;;;17.90;8.63;;;4.90;73.10;;;;;;5028615;28;20395;-78
2021/12/21 10:33:36;;;;;;;14.63;8.50;;;4.90;72.40;;;;;;5032904;28;20442;-78
2021/12/21 10:36:05;;;;;;;14.65;8.27;;;5.00;72.20;;;;;;5036579;28;20022;-78
2021/12/21 10:38:37;;;;;;;12.10;5.95;;;5.10;72.70;;;;;;5031547;28;20496;-78
2021/12/21 10:41:18;;;;;;;23.77;8.60;;;5.00;71.40;;;;;;5033368;28;20045;-78
2021/12/21 10:44:00;;;;;;;18.67;9.35;;;5.10;71.90;;;;;;5033822;28;20073;-78
2021/12/21 10:46:31;;;;;;;14.27;7.80;;;5.20;72.00;;;;;;5031832;28;20025;-78
2021/12/21 10:49:09;;;;;;;13.85;7.05;;;5.00;71.40;;;;;;5033125;28;20028;-77
2021/12/21 10:51:36;;;;;;;15.57;7.82;;;5.20;71.20;;;;;;5021895;28;20440;-77
2021/12/21 10:54:02;;;;;;;13.95;8.23;;;5.20;71.20;;;;;;5035001;28;20037;-77
2021/12/21 11:02:10;;;;;;;24.30;7.35;;;5.50;70.80;;;;;;4925962;23;20507;-73
2021/12/21 11:04:43;;;;;;;12.43;5.93;;;5.60;70.50;;;;;;4881816;29;20056;-74
2021/12/21 11:08:05;;;;;;;10.48;5.75;;;5.60;70.10;;;;;;4882403;29;20033;-76
2021/12/21 11:10:20;;;;;;;15.60;8.65;;;5.50;69.20;;;;;;4878750;29;20037;-73
2021/12/21 11:12:48;;;;;;;;;;;5.60;69.80;;;;;;4897251;29;20037;-74
2021/12/21 11:15:18;;;;;;;12.45;6.80;;;5.70;69.30;;;;;;4881713;29;19931;-74
2021/12/21 11:17:44;;;;;;;10.73;6.32;;;5.80;69.50;;;;;;4881754;29;20060;-73
2021/12/21 11:20:12;;;;;;;13.50;7.20;;;5.80;68.60;;;;;;4881106;29;20064;-74
2021/12/21 11:22:41;;;;;;;12.77;5.93;;;5.70;68.20;;;;;;4881930;29;20081;-74
2021/12/21 11:25:08;;;;;;;13.02;6.85;;;5.70;68.10;;;;;;4882006;29;20033;-74
2021/12/21 11:27:36;;;;;;;22.98;8.98;;;5.70;68.40;;;;;;4896302;29;20025;-74
2021/12/21 11:30:06;;;;;;;10.48;6.63;;;5.70;68.10;;;;;;4882117;29;20076;-74
2021/12/21 11:32:38;;;;;;;11.20;7.72;;;5.70;67.90;;;;;;4874056;29;20025;-74
2021/12/21 11:37:20;;;;;;;13.88;6.47;;;5.70;67.70;;;;;;4871163;29;20056;-74
2021/12/21 11:38:04;;;;;;;14.45;7.35;;;5.70;68.10;;;;;;4881985;29;20033;-74
2021/12/21 11:40:35;;;;;;;14.77;7.28;;;5.90;67.90;;;;;;4864813;29;20535;-74
2021/12/21 11:43:22;;;;;;;17.30;7.43;;;5.90;68.30;;;;;;4866109;29;20036;-73
2021/12/21 11:46:01;;;;;;;14.73;8.32;;;6.00;67.90;;;;;;4863311;29;20036;-76
2021/12/21 11:48:46;;;;;;;15.10;6.78;;;6.10;67.50;;;;;;4866226;29;20129;-76
2021/12/21 11:51:13;;;;;;;13.07;6.68;;;6.20;67.10;;;;;;4880533;29;20025;-73
2021/12/21 11:53:39;;;;;;;9.30;5.55;;;6.20;67.10;;;;;;4881737;29;20057;-73
2021/12/21 11:56:06;;;;;;;14.55;7.72;;;6.10;66.50;;;;;;4881160;29;20102;-74
2021/12/21 11:58:40;;;;;;;11.40;5.60;;;6.10;66.50;;;;;;4881670;29;20044;-73
2021/12/21 12:01:14;;;;;;;10.43;6.60;;;6.20;66.80;;;;;;4881083;29;20093;-74
2021/12/21 12:03:46;;;;;;;16.90;7.15;;;6.20;67.00;;;;;;4881187;29;20513;-74
2021/12/21 12:06:14;;;;;;;11.82;6.88;;;6.20;66.30;;;;;;4881380;29;20053;-74
2021/12/21 12:08:46;;;;;;;10.48;5.35;;;6.20;66.50;;;;;;4881080;29;20025;-74
2021/12/21 12:11:24;;;;;;;9.15;6.57;;;6.30;66.20;;;;;;4881473;29;20029;-74
2021/12/21 12:14:01;;;;;;;12.93;6.93;;;6.50;66.10;;;;;;4875920;29;20499;-74
2021/12/21 12:16:27;;;;;;;10.05;5.25;;;6.50;65.80;;;;;;4872228;29;20035;-75
2021/12/21 12:18:53;;;;;;;9.68;6.30;;;6.50;65.50;;;;;;4873415;29;20384;-76
2021/12/21 12:21:28;;;;;;;12.45;7.13;;;6.50;65.40;;;;;;4885218;29;20096;-76
2021/12/21 12:24:01;;;;;;;7.28;5.40;;;6.40;65.60;;;;;;4885458;29;20126;-76
2021/12/21 12:26:28;;;;;;;15.43;7.30;;;6.50;65.40;;;;;;4877493;29;20060;-76
2021/12/21 12:28:56;;;;;;;15.73;6.22;;;6.60;65.80;;;;;;4879456;29;20112;-77
2021/12/21 12:31:35;;;;;;;14.43;9.10;;;6.60;65.40;;;;;;4879489;29;20132;-75
2021/12/21 12:34:02;;;;;;;11.85;5.60;;;6.70;65.60;;;;;;4877683;29;20029;-76
2021/12/21 12:36:41;;;;;;;10.25;6.28;;;6.70;65.30;;;;;;4879479;29;20104;-75
2021/12/21 12:39:08;;;;;;;12.98;6.68;;;6.70;65.30;;;;;;4877819;29;20755;-75
2021/12/21 12:41:45;;;;;;;11.18;6.88;;;6.70;65.50;;;;;;4876272;29;20033;-76
2021/12/21 12:44:24;;;;;;;10.25;6.45;;;6.70;65.40;;;;;;4882107;29;20079;-75
2021/12/21 12:47:02;;;;;;;10.82;6.43;;;6.70;65.40;;;;;;4877751;29;20029;-76
2021/12/21 12:49:30;;;;;;;18.63;8.30;;;6.80;65.60;;;;;;4878363;29;20111;-76
2021/12/21 12:52:06;;;;;;;14.80;8.13;;;6.70;65.50;;;;;;4891835;29;20515;-75
2021/12/21 12:54:46;;;;;;;11.43;7.10;;;6.80;66.10;;;;;;4892768;29;20045;-77
2021/12/21 12:57:30;;;;;;;;;;;6.80;65.40;;;;;;4885820;29;20025;-76
2021/12/21 13:00:06;;;;;;;12.88;6.55;;;6.90;66.00;;;;;;4884943;29;19916;-76
2021/12/21 13:02:33;;;;;;;13.40;6.88;;;7.00;66.20;;;;;;4888468;29;20057;-77
2021/12/21 13:05:13;;;;;;;11.45;6.13;;;6.90;66.10;;;;;;4880855;29;20022;-76
2021/12/21 13:07:38;;;;;;;12.95;6.97;;;6.80;65.40;;;;;;4877817;29;20107;-76
2021/12/21 13:10:08;;;;;;;10.88;7.05;;;6.90;65.40;;;;;;4884964;29;20068;-76
2021/12/21 13:12:34;;;;;;;6.13;4.28;;;6.90;65.60;;;;;;4878582;29;20120;-76
2021/12/21 13:15:00;;;;;;;10.40;6.22;;;6.90;65.40;;;;;;4889322;29;20112;-76
2021/12/21 13:17:27;;;;;;;9.10;6.03;;;7.00;65.20;;;;;;4878882;29;20041;-76
2021/12/21 13:19:52;;;;;;;11.30;6.47;;;7.00;65.20;;;;;;4878908;29;20029;-76
2021/12/21 13:22:26;;;;;;;11.63;5.88;;;7.00;65.00;;;;;;4878790;29;20045;-76
2021/12/21 13:24:52;;;;;;;17.70;9.18;;;7.00;65.50;;;;;;4878786;29;20040;-76
2021/12/21 13:27:21;;;;;;;15.98;6.80;;;7.00;65.70;;;;;;4880404;29;20032;-77
2021/12/21 13:29:47;;;;;;;14.98;7.15;;;7.10;65.70;;;;;;4882960;29;20112;-76
2021/12/21 13:32:17;;;;;;;17.92;7.43;;;7.10;65.80;;;;;;4882971;29;20036;-76
2021/12/21 13:34:45;;;;;;;14.40;7.78;;;7.00;64.90;;;;;;4883054;29;20021;-77
2021/12/21 13:37:16;;;;;;;12.80;6.20;;;7.00;65.20;;;;;;4881801;29;20060;-77
2021/12/21 13:40:04;;;;;;;15.27;7.65;;;7.00;65.40;;;;;;4882771;29;20032;-77
2021/12/21 13:42:31;;;;;;;17.40;7.53;;;7.00;65.70;;;;;;4883711;29;20025;-77
2021/12/21 13:45:04;;;;;;;12.35;6.85;;;7.00;65.30;;;;;;4882417;29;20050;-77
2021/12/21 13:47:37;;;;;;;9.90;5.28;;;7.10;65.30;;;;;;4882244;29;20140;-77
2021/12/21 13:50:14;;;;;;;13.55;8.48;;;7.00;64.80;;;;;;4879109;29;20030;-77
2021/12/21 13:52:43;;;;;;;17.58;8.73;;;7.00;65.10;;;;;;4879292;29;20500;-76
2021/12/21 13:55:31;;;;;;;20.65;7.88;;;7.00;65.60;;;;;;4889087;29;20471;-77
2021/12/21 13:57:59;;;;;;;13.32;7.30;;;7.10;65.00;;;;;;4880799;29;20037;-76
2021/12/21 14:00:28;;;;;;;15.40;7.72;;;7.00;65.10;;;;;;4883173;29;20029;-77
2021/12/21 14:03:06;;;;;;;12.23;7.93;;;7.10;65.40;;;;;;4883127;29;20048;-75
2021/12/21 14:05:46;;;;;;;17.13;7.15;;;7.00;64.90;;;;;;4882867;29;20496;-77
2021/12/21 14:08:14;;;;;;;;;;;7.10;64.90;;;;;;4879551;29;20029;-76
2021/12/21 14:10:48;;;;;;;14.45;7.45;;;7.10;64.60;;;;;;4881625;29;20378;-75
2021/12/21 14:13:15;;;;;;;12.18;6.57;;;7.10;64.80;;;;;;4880200;29;20029;-76
2021/12/21 14:15:46;;;;;;;11.23;6.90;;;7.10;64.70;;;;;;4880563;29;20029;-75
2021/12/21 14:18:32;;;;;;;13.35;7.28;;;7.10;65.20;;;;;;4881714;29;20077;-76
2021/12/21 14:21:05;;;;;;;12.43;7.93;;;7.00;64.80;;;;;;4879921;29;20021;-76